Time;durP1;ratioP1;P1;durP2;ratioP2;P2;SDS_P1;SDS_P2;PMS_P1;PMS_P2;Temp;Humidity;BMP_temperature;BMP_pressure;BME280_temperature;BME280_humidity;BME280_pressure;Samples;Min_cycle;Max_cycle;Signal;HPM_P1;HPM_P2
2021/12/16 00:09:10;;;;;;;77.28;35.92;;;;;;;;;;4998866;28;20037;-39
2021/12/16 00:35:41;;;;;;;88.03;44.90;;;;;;;;;;5032816;28;20032;-40
2021/12/16 00:38:10;;;;;;;85.05;40.42;;;;;;;;;;5033060;28;20025;-43
2021/12/16 00:40:41;;;;;;;96.15;46.83;;;;;;;;;;5032709;28;20029;-40
2021/12/16 00:43:34;;;;;;;;;;;;;;;;;;5033195;28;20021;-41
2021/12/16 00:46:12;;;;;;;77.38;36.22;;;;;;;;;;5032690;28;19920;-39
2021/12/16 00:54:12;;;;;;;73.45;34.30;;;;;;;;;;5018847;28;20476;-41
2021/12/16 00:56:39;;;;;;;80.38;36.17;;;;;;;;;;5032479;28;20040;-39
2021/12/16 00:59:07;;;;;;;72.82;34.03;;;;;;;;;;5031303;28;20048;-43
2021/12/16 01:07:39;;;;;;;76.20;36.38;;;;;;;;;;5009760;28;20556;-39
2021/12/16 01:35:15;;;;;;;77.78;36.58;;;;;;;;;;5033772;28;20028;-39
2021/12/16 01:46:31;;;;;;;83.85;39.00;;;;;;;;;;5055815;28;20052;-40
2021/12/16 01:51:25;;;;;;;77.90;34.83;;;;;;;;;;5055435;28;20041;-40
2021/12/16 01:56:59;;;;;;;91.03;42.88;;;;;;;;;;5055579;28;20397;-39
2021/12/16 01:59:33;;;;;;;91.38;42.38;;;;;;;;;;5055277;28;20090;-38
2021/12/16 02:02:11;;;;;;;83.45;38.80;;;;;;;;;;5055136;28;20396;-39
2021/12/16 02:05:09;;;;;;;85.40;42.30;;;;;;;;;;5054978;28;20036;-39
2021/12/16 02:10:11;;;;;;;88.80;39.85;;;;;;;;;;5055040;28;20025;-40
2021/12/16 02:36:47;;;;;;;75.95;34.75;;;;;;;;;;5054462;28;20021;-45
2021/12/16 02:39:16;;;;;;;85.05;40.03;;;;;;;;;;5054513;28;20066;-46
2021/12/16 02:41:46;;;;;;;72.38;33.72;;;;;;;;;;5054529;28;20025;-40
2021/12/16 02:49:44;;;;;;;71.63;33.50;;;;;;;;;;5032208;28;20030;-39
2021/12/16 02:52:11;;;;;;;72.50;33.92;;;;;;;;;;5032208;28;20056;-44
2021/12/16 02:54:40;;;;;;;73.60;35.55;;;;;;;;;;5032352;28;20025;-40
2021/12/16 02:57:06;;;;;;;66.00;31.83;;;;;;;;;;5031986;28;20030;-40
2021/12/16 02:59:35;;;;;;;66.53;31.70;;;;;;;;;;5032211;28;20035;-40
2021/12/16 03:02:06;;;;;;;67.40;34.25;;;;;;;;;;5031955;28;20513;-49
2021/12/16 03:04:36;;;;;;;69.82;34.03;;;;;;;;;;5031807;28;20041;-40
2021/12/16 03:07:06;;;;;;;69.03;33.50;;;;;;;;;;5032049;28;20026;-40
2021/12/16 03:14:49;;;;;;;70.68;35.83;;;;;;;;;;5031821;28;20029;-43
2021/12/16 03:17:31;;;;;;;72.43;35.25;;;;;;;;;;5031772;28;20428;-44
2021/12/16 03:20:12;;;;;;;81.18;38.25;;;;;;;;;;5031863;28;20144;-51
2021/12/16 03:25:24;;;;;;;86.32;39.65;;;;;;;;;;5053586;28;20388;-39
2021/12/16 03:31:23;;;;;;;79.03;37.80;;;;;;;;;;5053821;28;20040;-44
2021/12/16 03:38:47;;;;;;;80.90;38.42;;;;;;;;;;5053889;28;20420;-55
2021/12/16 03:41:14;;;;;;;96.75;40.47;;;;;;;;;;5053462;28;20017;-45
2021/12/16 03:43:40;;;;;;;86.00;40.28;;;;;;;;;;5052042;28;20029;-47
2021/12/16 03:48:38;;;;;;;90.20;41.22;;;;;;;;;;5053470;28;20021;-40
2021/12/16 03:51:06;;;;;;;88.32;40.03;;;;;;;;;;5053397;28;20021;-40
2021/12/16 03:53:32;;;;;;;95.88;43.45;;;;;;;;;;5053358;28;20473;-40
2021/12/16 03:55:58;;;;;;;99.90;45.63;;;;;;;;;;5053310;28;20032;-39
2021/12/16 03:58:25;;;;;;;93.43;46.53;;;;;;;;;;5053713;28;20044;-39
2021/12/16 04:00:56;;;;;;;90.80;43.38;;;;;;;;;;5053326;28;20060;-41
2021/12/16 04:03:22;;;;;;;92.30;43.47;;;;;;;;;;5053351;28;20067;-39
2021/12/16 04:05:51;;;;;;;107.97;47.70;;;;;;;;;;5053149;28;20154;-48
2021/12/16 04:08:19;;;;;;;101.15;46.00;;;;;;;;;;5053382;28;20025;-38
2021/12/16 04:11:00;;;;;;;110.65;47.30;;;;;;;;;;5053143;28;20028;-40
2021/12/16 04:13:27;;;;;;;103.50;46.78;;;;;;;;;;5053230;28;20031;-38
2021/12/16 04:15:53;;;;;;;96.00;44.60;;;;;;;;;;5053045;28;20041;-39
2021/12/16 04:18:24;;;;;;;104.13;45.65;;;;;;;;;;5053102;28;20056;-37
2021/12/16 04:20:50;;;;;;;108.25;49.55;;;;;;;;;;5053185;28;20392;-39
2021/12/16 04:23:18;;;;;;;110.55;49.42;;;;;;;;;;5053049;28;20025;-38
2021/12/16 04:25:45;;;;;;;111.75;50.10;;;;;;;;;;5053181;28;20461;-39
2021/12/16 04:28:14;;;;;;;116.97;52.28;;;;;;;;;;5053182;28;20087;-40
2021/12/16 04:30:44;;;;;;;116.32;49.88;;;;;;;;;;5053059;28;20389;-39
2021/12/16 04:33:11;;;;;;;126.60;54.20;;;;;;;;;;5052772;28;20048;-39
2021/12/16 04:35:40;;;;;;;134.82;58.28;;;;;;;;;;5052945;28;20029;-39
2021/12/16 04:38:07;;;;;;;130.25;53.45;;;;;;;;;;5052859;28;20029;-39
2021/12/16 04:40:35;;;;;;;136.43;53.97;;;;;;;;;;5052714;28;20021;-39
2021/12/16 04:43:02;;;;;;;126.70;55.67;;;;;;;;;;5051454;28;20033;-38
2021/12/16 04:45:29;;;;;;;137.02;55.13;;;;;;;;;;5052481;28;20056;-39
2021/12/16 04:47:56;;;;;;;128.63;55.72;;;;;;;;;;5052856;28;20427;-38
2021/12/16 04:50:22;;;;;;;128.57;62.08;;;;;;;;;;5052752;28;20055;-38
2021/12/16 04:52:49;;;;;;;117.18;57.67;;;;;;;;;;5052654;28;20025;-38
2021/12/16 04:55:15;;;;;;;112.68;54.10;;;;;;;;;;5052776;28;20351;-39
2021/12/16 04:57:44;;;;;;;103.53;50.92;;;;;;;;;;5053433;28;20096;-39
2021/12/16 05:00:12;;;;;;;100.75;49.95;;;;;;;;;;5056653;28;20054;-39
2021/12/16 05:02:39;;;;;;;103.65;48.92;;;;;;;;;;5056072;28;20013;-40
2021/12/16 05:05:05;;;;;;;105.22;50.58;;;;;;;;;;5056342;28;20037;-40
2021/12/16 05:07:32;;;;;;;104.57;51.92;;;;;;;;;;5056425;28;20025;-39
2021/12/16 05:10:10;;;;;;;106.80;56.30;;;;;;;;;;5056220;28;20048;-39
2021/12/16 05:12:39;;;;;;;123.28;63.05;;;;;;;;;;5055964;28;20463;-37
2021/12/16 05:15:09;;;;;;;114.97;57.45;;;;;;;;;;5055958;28;20059;-39
2021/12/16 05:17:41;;;;;;;105.78;53.83;;;;;;;;;;5055788;28;20049;-40
2021/12/16 05:20:10;;;;;;;107.85;51.95;;;;;;;;;;5054691;28;20492;-40
2021/12/16 05:28:07;;;;;;;97.70;51.03;;;;;;;;;;5056158;28;20048;-39
2021/12/16 05:30:36;;;;;;;97.60;50.60;;;;;;;;;;5055673;28;20075;-39
2021/12/16 05:33:02;;;;;;;94.90;49.47;;;;;;;;;;5055731;28;20048;-39
2021/12/16 05:35:29;;;;;;;94.18;48.35;;;;;;;;;;5055669;28;20021;-40
2021/12/16 05:37:56;;;;;;;94.57;48.75;;;;;;;;;;5055629;28;20036;-39
2021/12/16 05:40:24;;;;;;;102.03;51.40;;;;;;;;;;5055641;28;20029;-39
2021/12/16 05:42:54;;;;;;;105.28;51.90;;;;;;;;;;5055662;28;20531;-39
2021/12/16 05:45:22;;;;;;;107.97;54.00;;;;;;;;;;5055267;28;20037;-39
2021/12/16 05:47:48;;;;;;;113.28;56.28;;;;;;;;;;5055452;28;20021;-40
2021/12/16 05:50:14;;;;;;;114.07;57.50;;;;;;;;;;5055450;28;20021;-39
2021/12/16 05:52:41;;;;;;;106.22;56.20;;;;;;;;;;5054369;28;20056;-39
2021/12/16 05:55:07;;;;;;;117.68;57.55;;;;;;;;;;5055311;28;20060;-40
2021/12/16 05:57:36;;;;;;;113.43;56.30;;;;;;;;;;5055306;28;20018;-39
2021/12/16 06:00:04;;;;;;;106.13;54.80;;;;;;;;;;5055103;28;20032;-39
2021/12/16 06:02:30;;;;;;;115.72;59.15;;;;;;;;;;5055111;28;20025;-38
2021/12/16 06:04:56;;;;;;;121.28;58.28;;;;;;;;;;5055247;28;20041;-38
2021/12/16 06:07:22;;;;;;;105.15;54.25;;;;;;;;;;5055166;28;20105;-39
2021/12/16 06:09:48;;;;;;;109.95;53.70;;;;;;;;;;5054226;28;20082;-37
2021/12/16 06:12:15;;;;;;;113.10;55.65;;;;;;;;;;5055021;28;20021;-39
2021/12/16 06:15:41;;;;;;;113.20;55.50;;;;;;;;;;5054762;28;20086;-38
2021/12/16 06:28:27;;;;;;;94.82;47.58;;;;;;;;;;5046135;28;20123;-39
2021/12/16 06:30:59;;;;;;;88.18;46.55;;;;;;;;;;5054678;28;20036;-39
2021/12/16 06:33:25;;;;;;;88.78;45.08;;;;;;;;;;5054428;28;20028;-40
2021/12/16 06:35:52;;;;;;;95.22;48.45;;;;;;;;;;5054546;28;20025;-39
2021/12/16 06:38:23;;;;;;;91.28;48.50;;;;;;;;;;5054583;28;20020;-40
2021/12/16 06:40:50;;;;;;;95.53;49.63;;;;;;;;;;5054518;28;20503;-39
2021/12/16 06:43:18;;;;;;;96.85;49.92;;;;;;;;;;5054109;28;20462;-39
2021/12/16 06:45:48;;;;;;;99.68;51.22;;;;;;;;;;5054301;28;20047;-39
2021/12/16 06:48:20;;;;;;;103.90;52.50;;;;;;;;;;5054231;28;20029;-39
2021/12/16 06:50:55;;;;;;;111.28;58.10;;;;;;;;;;5052969;28;20032;-39
2021/12/16 06:53:45;;;;;;;104.60;57.28;;;;;;;;;;5054327;28;20063;-39
2021/12/16 06:56:15;;;;;;;112.53;59.00;;;;;;;;;;5054558;28;20029;-41
2021/12/16 06:58:47;;;;;;;117.25;60.10;;;;;;;;;;5054012;28;20027;-40
2021/12/16 07:01:29;;;;;;;117.35;62.63;;;;;;;;;;5054162;28;20465;-38
2021/12/16 07:03:55;;;;;;;128.45;69.13;;;;;;;;;;5054112;28;20117;-40
2021/12/16 07:06:26;;;;;;;120.13;61.33;;;;;;;;;;5053947;28;20433;-38
2021/12/16 07:08:54;;;;;;;104.43;53.22;;;;;;;;;;5054124;28;20066;-38
2021/12/16 07:11:30;;;;;;;100.75;53.05;;;;;;;;;;5054083;28;20380;-49
2021/12/16 07:13:59;;;;;;;96.70;49.42;;;;;;;;;;5053606;28;20491;-40
2021/12/16 07:16:29;;;;;;;93.32;48.05;;;;;;;;;;5053673;28;20102;-40
2021/12/16 07:18:56;;;;;;;100.00;51.97;;;;;;;;;;5053643;28;20075;-39
2021/12/16 07:21:23;;;;;;;96.00;53.28;;;;;;;;;;5053961;28;20017;-40
2021/12/16 07:23:52;;;;;;;96.57;52.20;;;;;;;;;;5053570;28;20554;-39
2021/12/16 07:26:18;;;;;;;87.45;45.67;;;;;;;;;;5053520;28;20029;-40
2021/12/16 07:28:44;;;;;;;98.15;49.90;;;;;;;;;;5053784;28;20021;-40
2021/12/16 07:31:10;;;;;;;91.40;50.80;;;;;;;;;;5053753;28;20052;-40
2021/12/16 07:33:36;;;;;;;105.47;51.17;;;;;;;;;;5053408;28;20488;-41
2021/12/16 07:36:03;;;;;;;123.22;62.75;;;;;;;;;;5053454;28;20032;-38
2021/12/16 07:38:29;;;;;;;97.10;51.28;;;;;;;;;;5052177;28;20017;-40
2021/12/16 07:40:57;;;;;;;96.80;45.53;;;;;;;;;;5053534;28;20491;-40
2021/12/16 07:45:51;;;;;;;84.38;44.40;;;;;;;;;;5053485;28;20041;-42
2021/12/16 07:48:17;;;;;;;82.80;44.38;;;;;;;;;;5053291;28;20503;-40
2021/12/16 07:50:44;;;;;;;116.15;47.28;;;;;;;;;;5053377;28;20490;-41
2021/12/16 07:53:10;;;;;;;85.55;45.97;;;;;;;;;;5053219;28;20025;-40
2021/12/16 07:55:41;;;;;;;85.65;45.38;;;;;;;;;;5053103;28;20469;-39
2021/12/16 07:58:07;;;;;;;86.07;47.75;;;;;;;;;;5051950;28;20433;-39
2021/12/16 08:00:36;;;;;;;91.93;49.20;;;;;;;;;;5053127;28;20021;-38
2021/12/16 08:03:08;;;;;;;92.85;50.10;;;;;;;;;;5053075;28;20388;-40
2021/12/16 08:05:37;;;;;;;158.57;79.53;;;;;;;;;;5053071;28;20507;-39
2021/12/16 08:08:04;;;;;;;112.40;57.63;;;;;;;;;;5053100;28;20021;-39
2021/12/16 08:10:30;;;;;;;96.05;51.60;;;;;;;;;;5052901;28;20086;-39
2021/12/16 08:12:57;;;;;;;98.07;53.08;;;;;;;;;;5052916;28;20104;-38
2021/12/16 08:15:26;;;;;;;99.65;50.65;;;;;;;;;;5052877;28;20057;-41
2021/12/16 08:17:54;;;;;;;97.07;49.90;;;;;;;;;;5052736;28;20420;-40
2021/12/16 08:20:21;;;;;;;101.00;52.97;;;;;;;;;;5052972;28;20032;-39
2021/12/16 08:22:49;;;;;;;98.53;49.80;;;;;;;;;;5052893;28;20095;-40
2021/12/16 08:25:15;;;;;;;91.75;50.47;;;;;;;;;;5052849;28;20025;-40
2021/12/16 08:27:42;;;;;;;99.15;52.83;;;;;;;;;;5053017;28;20024;-40
2021/12/16 08:30:11;;;;;;;105.00;56.17;;;;;;;;;;5052806;28;20045;-40
2021/12/16 08:32:39;;;;;;;156.57;83.22;;;;;;;;;;5053531;28;20028;-39
2021/12/16 08:35:07;;;;;;;137.35;72.35;;;;;;;;;;5056744;28;20017;-39
2021/12/16 08:37:35;;;;;;;137.30;73.07;;;;;;;;;;5056608;28;20104;-38
2021/12/16 08:40:02;;;;;;;98.05;56.90;;;;;;;;;;5052092;28;20036;-39
2021/12/16 08:42:28;;;;;;;93.93;56.58;;;;;;;;;;5036126;28;20029;-51
2021/12/16 08:44:55;;;;;;;90.18;53.47;;;;;;;;;;5036059;28;20026;-58
2021/12/16 08:47:24;;;;;;;90.93;57.03;;;;;;;;;;5036123;28;20038;-54
2021/12/16 08:49:50;;;;;;;70.97;45.90;;;;;;;;;;5032524;28;20437;-54
2021/12/16 08:52:19;;;;;;;63.08;42.58;;;;;;;;;;5031604;28;20018;-51
2021/12/16 08:54:46;;;;;;;76.28;49.13;;;;;;;;;;5031480;28;20615;-55
2021/12/16 08:57:15;;;;;;;62.35;45.75;;;;;;;;;;5033171;28;20036;-54
2021/12/16 08:59:43;;;;;;;73.50;51.20;;;;;;;;;;5033695;28;20017;-62
2021/12/16 09:02:09;;;;;;;56.80;41.85;;;;;;;;;;5034313;28;20041;-57
2021/12/16 09:04:36;;;;;;;48.65;35.60;;;;;;;;;;5035663;28;20039;-57
2021/12/16 09:07:04;;;;;;;52.25;38.63;;;;;;;;;;5036079;28;20397;-57
2021/12/16 09:09:34;;;;;;;63.20;42.20;;;;;;;;;;5036265;28;20026;-56
2021/12/16 09:12:06;;;;;;;75.28;54.28;;;;;;;;;;5036068;28;20559;-55
2021/12/16 09:14:35;;;;;;;70.47;53.13;;;;;;;;;;5036342;28;20029;-52
2021/12/16 09:17:02;;;;;;;50.53;38.45;;;;;;;;;;5035846;28;20415;-55
2021/12/16 09:19:28;;;;;;;58.50;44.00;;;;;;;;;;5035847;28;20515;-53
2021/12/16 09:21:54;;;;;;;56.45;40.67;;;;;;;;;;5035812;28;20037;-55
2021/12/16 09:24:20;;;;;;;63.30;42.47;;;;;;;;;;5035691;28;20051;-53
2021/12/16 09:26:46;;;;;;;97.30;57.30;;;;;;;;;;5035663;28;20444;-51
2021/12/16 09:29:13;;;;;;;67.45;48.67;;;;;;;;;;5035814;28;20420;-53
2021/12/16 09:31:39;;;;;;;70.15;50.67;;;;;;;;;;5035748;28;20031;-55
2021/12/16 09:34:08;;;;;;;71.22;51.70;;;;;;;;;;5035442;28;20022;-51
2021/12/16 09:36:35;;;;;;;66.47;47.13;;;;;;;;;;5035654;28;20095;-56
2021/12/16 09:39:04;;;;;;;92.57;54.00;;;;;;;;;;5035676;28;20021;-56
2021/12/16 09:41:30;;;;;;;72.13;50.17;;;;;;;;;;5035629;28;20032;-58
2021/12/16 09:43:59;;;;;;;68.03;50.13;;;;;;;;;;5034609;28;20052;-57
2021/12/16 09:46:26;;;;;;;61.58;44.38;;;;;;;;;;5035272;28;20405;-57
2021/12/16 09:48:54;;;;;;;67.47;47.53;;;;;;;;;;5035301;28;20021;-55
2021/12/16 09:51:23;;;;;;;67.07;48.20;;;;;;;;;;5035565;28;20026;-55
2021/12/16 09:53:53;;;;;;;69.60;47.92;;;;;;;;;;5035625;28;20029;-54
2021/12/16 09:56:20;;;;;;;71.07;49.42;;;;;;;;;;5035551;28;20477;-56
2021/12/16 09:58:47;;;;;;;83.47;51.90;;;;;;;;;;5035409;28;20028;-56
2021/12/16 10:01:14;;;;;;;75.03;48.40;;;;;;;;;;5035331;28;20068;-56
2021/12/16 10:03:41;;;;;;;68.82;45.40;;;;;;;;;;5035145;28;20076;-50
2021/12/16 10:06:07;;;;;;;67.57;43.33;;;;;;;;;;5035351;28;20036;-49
2021/12/16 10:08:35;;;;;;;71.20;44.95;;;;;;;;;;5035101;28;20092;-50
2021/12/16 10:11:01;;;;;;;75.68;47.40;;;;;;;;;;5035294;28;20025;-50
2021/12/16 10:14:03;;;;;;;78.50;47.00;;;;;;;;;;5035009;28;20067;-50
2021/12/16 10:19:03;;;;;;;77.82;48.50;;;;;;;;;;5035155;28;20044;-48
2021/12/16 10:21:31;;;;;;;85.53;50.25;;;;;;;;;;5034996;28;20386;-52
2021/12/16 10:23:57;;;;;;;89.07;52.08;;;;;;;;;;5034957;28;20474;-51
2021/12/16 10:26:28;;;;;;;82.03;51.03;;;;;;;;;;5035012;28;20038;-53
2021/12/16 10:28:58;;;;;;;74.88;46.30;;;;;;;;;;5034941;28;20053;-53
2021/12/16 10:31:24;;;;;;;70.30;44.17;;;;;;;;;;5034877;28;20033;-50
2021/12/16 10:33:53;;;;;;;73.13;45.42;;;;;;;;;;5034583;28;20022;-53
2021/12/16 10:36:25;;;;;;;83.65;48.72;;;;;;;;;;5034927;28;20014;-53
2021/12/16 10:38:56;;;;;;;80.00;48.25;;;;;;;;;;5034542;28;20030;-51
2021/12/16 10:41:25;;;;;;;82.65;49.58;;;;;;;;;;5034649;28;20026;-52
2021/12/16 10:43:56;;;;;;;90.15;52.05;;;;;;;;;;5034639;28;20436;-52
2021/12/16 10:46:27;;;;;;;97.72;56.47;;;;;;;;;;5034689;28;20041;-52
2021/12/16 10:49:20;;;;;;;95.97;55.88;;;;;;;;;;5034348;28;20029;-50
2021/12/16 10:51:54;;;;;;;95.82;53.17;;;;;;;;;;5031774;28;20033;-51
2021/12/16 10:54:20;;;;;;;98.20;56.15;;;;;;;;;;5034390;28;20418;-51
2021/12/16 10:56:49;;;;;;;82.10;49.15;;;;;;;;;;5033859;28;20092;-51
2021/12/16 10:59:18;;;;;;;79.90;47.72;;;;;;;;;;5034532;28;20386;-51
2021/12/16 11:01:44;;;;;;;75.57;44.05;;;;;;;;;;5034140;28;20052;-49
2021/12/16 11:04:18;;;;;;;82.43;47.03;;;;;;;;;;5034108;28;20447;-53
2021/12/16 11:06:46;;;;;;;91.38;51.78;;;;;;;;;;5033917;28;20112;-50
2021/12/16 11:09:23;;;;;;;86.50;50.95;;;;;;;;;;5034104;28;20025;-50
2021/12/16 11:12:04;;;;;;;97.93;53.45;;;;;;;;;;5033949;28;20033;-52
2021/12/16 11:14:32;;;;;;;95.07;50.53;;;;;;;;;;5033915;28;20029;-50
2021/12/16 11:17:00;;;;;;;92.45;51.85;;;;;;;;;;5033664;28;20048;-53
2021/12/16 11:19:38;;;;;;;88.40;53.08;;;;;;;;;;5033750;28;20028;-51
2021/12/16 11:22:07;;;;;;;93.82;54.35;;;;;;;;;;5032423;28;20083;-52
2021/12/16 11:24:33;;;;;;;90.47;53.30;;;;;;;;;;5033676;28;20022;-52
2021/12/16 11:26:59;;;;;;;91.32;52.13;;;;;;;;;;5033840;28;20037;-51
2021/12/16 11:29:30;;;;;;;105.40;56.20;;;;;;;;;;5033742;28;20030;-50
2021/12/16 11:31:56;;;;;;;105.45;56.20;;;;;;;;;;5033668;28;20108;-51
2021/12/16 11:34:23;;;;;;;96.35;53.75;;;;;;;;;;5033680;28;20018;-51
2021/12/16 11:36:53;;;;;;;92.95;53.03;;;;;;;;;;5033697;28;20539;-51
2021/12/16 11:39:29;;;;;;;85.38;49.90;;;;;;;;;;5033648;28;20072;-51
2021/12/16 11:41:59;;;;;;;92.97;51.70;;;;;;;;;;5033537;28;20021;-51
2021/12/16 11:44:29;;;;;;;93.22;52.22;;;;;;;;;;5033619;28;20121;-51
2021/12/16 11:47:06;;;;;;;93.15;54.53;;;;;;;;;;5033328;28;20037;-51
2021/12/16 11:49:35;;;;;;;99.57;54.90;;;;;;;;;;5033301;28;20013;-51
2021/12/16 11:52:05;;;;;;;97.30;53.90;;;;;;;;;;5033507;28;20370;-51
2021/12/16 11:54:42;;;;;;;100.90;56.85;;;;;;;;;;5033366;28;20469;-51
2021/12/16 11:57:16;;;;;;;105.88;58.50;;;;;;;;;;5033325;28;20112;-51
2021/12/16 11:59:52;;;;;;;100.63;56.58;;;;;;;;;;5033361;28;20056;-52
2021/12/16 12:02:22;;;;;;;107.90;61.85;;;;;;;;;;5033267;28;20018;-51
2021/12/16 12:04:48;;;;;;;109.22;58.80;;;;;;;;;;5033226;28;20482;-51
2021/12/16 12:07:15;;;;;;;102.78;55.72;;;;;;;;;;5033275;28;20034;-52
2021/12/16 12:09:46;;;;;;;120.90;64.25;;;;;;;;;;5037399;28;20025;-51
2021/12/16 12:12:12;;;;;;;121.72;64.88;;;;;;;;;;5037293;28;20033;-52
2021/12/16 12:14:39;;;;;;;129.32;68.30;;;;;;;;;;5036986;28;20032;-51
2021/12/16 12:17:07;;;;;;;132.98;69.35;;;;;;;;;;5035667;28;20061;-51
2021/12/16 12:19:33;;;;;;;122.72;64.50;;;;;;;;;;5037057;28;20048;-52
2021/12/16 12:22:04;;;;;;;123.13;64.90;;;;;;;;;;5044505;28;20389;-45
2021/12/16 12:24:43;;;;;;;125.45;67.13;;;;;;;;;;5036378;28;20029;-47
2021/12/16 12:27:13;;;;;;;112.68;60.75;;;;;;;;;;5036499;28;20103;-50
2021/12/16 12:29:50;;;;;;;106.85;57.10;;;;;;;;;;5036611;28;20211;-51
2021/12/16 12:32:21;;;;;;;101.78;57.33;;;;;;;;;;5036488;28;20021;-52
2021/12/16 12:34:50;;;;;;;91.97;48.70;;;;;;;;;;5036223;28;20033;-51
2021/12/16 12:37:20;;;;;;;115.45;61.97;;;;;;;;;;5036092;28;20021;-48
2021/12/16 12:39:48;;;;;;;125.65;65.03;;;;;;;;;;5035197;28;20515;-50
2021/12/16 12:42:15;;;;;;;122.45;65.05;;;;;;;;;;5036472;28;20033;-47
2021/12/16 12:44:42;;;;;;;115.93;63.95;;;;;;;;;;5036139;28;20057;-47
2021/12/16 12:47:10;;;;;;;117.63;64.03;;;;;;;;;;5036112;28;20485;-49
2021/12/16 12:49:37;;;;;;;121.03;65.00;;;;;;;;;;5036308;28;20030;-52
2021/12/16 12:52:10;;;;;;;131.27;68.13;;;;;;;;;;5036203;28;20454;-51
2021/12/16 12:54:37;;;;;;;112.65;63.75;;;;;;;;;;5036358;28;20049;-51
2021/12/16 12:57:35;;;;;;;121.57;63.72;;;;;;;;;;5036452;28;20021;-51
2021/12/16 13:00:03;;;;;;;119.03;63.22;;;;;;;;;;4975380;28;20475;-52
2021/12/16 13:02:35;;;;;;;119.65;61.78;;;;;;;;;;4975329;28;20387;-51
2021/12/16 13:05:04;;;;;;;110.45;62.22;;;;;;;;;;4974779;28;20033;-52
2021/12/16 13:07:37;;;;;;;111.50;60.88;;;;;;;;;;4975017;28;20046;-52
2021/12/16 13:10:07;;;;;;;109.88;62.58;;;;;;;;;;4975158;28;20034;-51
2021/12/16 13:12:37;;;;;;;124.10;68.85;;;;;;;;;;4975139;28;20483;-51
2021/12/16 13:15:19;;;;;;;129.88;69.78;;;;;;;;;;4974869;28;20030;-50
2021/12/16 13:23:40;;;;;;;110.82;63.72;;;;;;;;;;4975031;28;20042;-49
2021/12/16 13:29:35;;;;;;;97.63;54.95;;;;;;;;;;4936382;29;20047;-48
2021/12/16 13:34:42;;;;;;;123.13;65.95;;;;;;;;;;4939467;28;20031;-49
2021/12/16 13:37:20;;;;;;;111.55;58.67;;;;;;;;;;4974733;28;20031;-49
2021/12/16 13:39:47;;;;;;;100.72;54.50;;;;;;;;;;4974649;28;20494;-50
2021/12/16 13:42:15;;;;;;;106.43;60.13;;;;;;;;;;4974519;28;20035;-50
2021/12/16 13:44:43;;;;;;;106.50;59.25;;;;;;;;;;4974037;28;20109;-48
2021/12/16 13:47:27;;;;;;;97.00;53.58;;;;;;;;;;4974151;28;20046;-49
2021/12/16 13:58:33;;;;;;;115.53;67.35;;;;;;;;;;4974643;28;20034;-45
2021/12/16 14:01:32;;;;;;;128.52;69.75;;;;;;;;;;4974313;28;20027;-45
2021/12/16 14:06:50;;;;;;;93.25;53.65;;;;;;;;;;5022249;28;20091;-47
2021/12/16 14:09:18;;;;;;;109.10;60.35;;;;;;;;;;5034739;28;20029;-45
2021/12/16 14:14:44;;;;;;;92.40;50.35;;;;;;;;;;5035098;28;20021;-47
2021/12/16 14:23:15;;;;;;;115.60;63.92;;;;;;;;;;4973918;28;20045;-47
2021/12/16 14:42:27;;;;;;;110.80;58.67;;;;;;;;;;4897261;29;20056;-49
2021/12/16 14:50:10;;;;;;;232.00;116.10;;;;;;;;;;4897182;29;20455;-54
2021/12/16 14:52:36;;;;;;;215.93;108.25;;;;;;;;;;4897160;29;20079;-49
2021/12/16 14:55:08;;;;;;;235.55;120.07;;;;;;;;;;4911714;28;20038;-58
2021/12/16 14:57:36;;;;;;;;;;;;;;;;;;4973844;28;20043;-54
2021/12/16 15:00:30;;;;;;;197.13;102.65;;;;;;;;;;4973208;28;20634;-55
2021/12/16 15:03:05;;;;;;;127.80;68.97;;;;;;;;;;4971481;28;20038;-56
2021/12/16 15:05:34;;;;;;;163.98;85.35;;;;;;;;;;4972687;28;20463;-47
2021/12/16 15:08:06;;;;;;;126.38;68.13;;;;;;;;;;4971663;28;20050;-48
2021/12/16 15:10:32;;;;;;;113.10;60.78;;;;;;;;;;4972572;28;20105;-48
2021/12/16 15:13:06;;;;;;;129.50;69.93;;;;;;;;;;4972192;28;20118;-47
2021/12/16 15:15:45;;;;;;;149.20;80.68;;;;;;;;;;4972888;28;20030;-48
2021/12/16 15:45:23;;;;;;;109.97;60.42;;;;;;;;;;5030074;28;20037;-49
2021/12/16 15:47:52;;;;;;;100.82;57.95;;;;;;;;;;5032170;28;20045;-48
2021/12/16 15:50:27;;;;;;;115.65;64.13;;;;;;;;;;5032675;28;20017;-49
2021/12/16 15:52:54;;;;;;;109.45;59.22;;;;;;;;;;5032627;28;20072;-51
2021/12/16 15:55:28;;;;;;;110.65;60.67;;;;;;;;;;5032702;28;20022;-50
2021/12/16 15:57:58;;;;;;;119.22;62.47;;;;;;;;;;5032790;28;20036;-50
2021/12/16 16:00:24;;;;;;;129.20;66.38;;;;;;;;;;5033046;28;20050;-50
2021/12/16 16:02:52;;;;;;;132.38;68.85;;;;;;;;;;5033033;28;20080;-50
2021/12/16 16:05:19;;;;;;;143.55;76.22;;;;;;;;;;5032663;28;20500;-51
2021/12/16 16:07:45;;;;;;;140.27;73.85;;;;;;;;;;5032898;28;20454;-51
2021/12/16 16:10:16;;;;;;;137.38;74.70;;;;;;;;;;5031731;28;20393;-49
2021/12/16 16:12:42;;;;;;;;;;;;;;;;;;5033480;28;20060;-48
2021/12/16 16:15:16;;;;;;;145.18;78.38;;;;;;;;;;5033029;28;19909;-49
2021/12/16 16:17:59;;;;;;;147.55;78.88;;;;;;;;;;5032967;28;20045;-50
2021/12/16 16:20:28;;;;;;;166.80;86.93;;;;;;;;;;5033136;28;20040;-50
2021/12/16 16:22:54;;;;;;;168.95;90.13;;;;;;;;;;5032970;28;20032;-50
2021/12/16 16:25:21;;;;;;;187.98;99.53;;;;;;;;;;5031265;28;20440;-49
2021/12/16 16:27:51;;;;;;;167.75;88.95;;;;;;;;;;5032254;28;20756;-53
2021/12/16 16:30:18;;;;;;;181.52;100.30;;;;;;;;;;5032822;28;20067;-52
2021/12/16 16:33:01;;;;;;;211.55;114.18;;;;;;;;;;5032649;28;20025;-51
2021/12/16 16:35:27;;;;;;;158.77;87.63;;;;;;;;;;5032767;28;20032;-49
2021/12/16 16:37:53;;;;;;;160.45;88.78;;;;;;;;;;5032851;28;20025;-51
2021/12/16 16:40:19;;;;;;;148.68;82.65;;;;;;;;;;5032702;28;20025;-50
2021/12/16 16:42:48;;;;;;;123.22;70.35;;;;;;;;;;5031240;28;20456;-50
2021/12/16 16:45:21;;;;;;;117.20;66.10;;;;;;;;;;5031938;28;20512;-50
2021/12/16 16:47:53;;;;;;;136.18;74.38;;;;;;;;;;5029968;28;20401;-50
2021/12/16 16:50:20;;;;;;;119.95;64.25;;;;;;;;;;5032109;28;20025;-48
2021/12/16 16:52:50;;;;;;;116.03;62.92;;;;;;;;;;5032089;28;20032;-48
2021/12/16 16:55:16;;;;;;;117.47;63.67;;;;;;;;;;5035529;28;20018;-47
2021/12/16 16:57:47;;;;;;;191.57;101.70;;;;;;;;;;5035568;28;20076;-48
2021/12/16 17:00:32;;;;;;;164.80;89.18;;;;;;;;;;5035788;28;20095;-49
2021/12/16 17:03:01;;;;;;;142.00;77.38;;;;;;;;;;5035164;28;20064;-50
2021/12/16 17:05:29;;;;;;;121.55;68.78;;;;;;;;;;5035347;28;20473;-49
2021/12/16 17:07:58;;;;;;;141.38;78.57;;;;;;;;;;5035423;28;20064;-50
2021/12/16 17:10:27;;;;;;;135.48;72.15;;;;;;;;;;5035855;28;20025;-51
2021/12/16 17:13:14;;;;;;;118.22;64.82;;;;;;;;;;5031898;28;20091;-48
2021/12/16 17:18:28;;;;;;;116.57;63.05;;;;;;;;;;5035474;28;20120;-48
2021/12/16 17:20:56;;;;;;;93.25;53.70;;;;;;;;;;5035526;28;20017;-53
2021/12/16 17:23:26;;;;;;;88.80;49.85;;;;;;;;;;5035668;28;20052;-54
2021/12/16 17:25:52;;;;;;;99.10;56.95;;;;;;;;;;5033635;28;20414;-46
2021/12/16 17:28:19;;;;;;;87.55;50.72;;;;;;;;;;5032680;28;20390;-50
2021/12/16 17:30:46;;;;;;;117.75;64.63;;;;;;;;;;5035043;28;20531;-51
2021/12/16 17:33:21;;;;;;;94.93;55.33;;;;;;;;;;5035346;28;20032;-49
2021/12/16 17:35:48;;;;;;;93.70;55.28;;;;;;;;;;5035867;28;20105;-49
2021/12/16 17:38:20;;;;;;;101.13;60.88;;;;;;;;;;5035584;28;20045;-49
2021/12/16 17:40:53;;;;;;;88.75;53.70;;;;;;;;;;5035143;28;20424;-49
2021/12/16 17:43:22;;;;;;;79.85;49.10;;;;;;;;;;5034911;28;20050;-52
2021/12/16 17:45:50;;;;;;;85.20;50.10;;;;;;;;;;5034587;28;20037;-49
2021/12/16 17:48:19;;;;;;;80.25;47.15;;;;;;;;;;5034594;28;20037;-49
2021/12/16 17:50:45;;;;;;;78.60;47.65;;;;;;;;;;5034880;28;20068;-47
2021/12/16 17:53:11;;;;;;;77.95;44.10;;;;;;;;;;5035022;28;20036;-50
2021/12/16 17:55:40;;;;;;;79.60;44.92;;;;;;;;;;5035378;28;20028;-47
2021/12/16 17:58:13;;;;;;;75.07;44.85;;;;;;;;;;5035239;28;20029;-48
2021/12/16 18:00:44;;;;;;;59.65;36.70;;;;;;;;;;5034898;28;20421;-46
2021/12/16 18:03:15;;;;;;;62.85;40.03;;;;;;;;;;5035245;28;20536;-50
2021/12/16 18:05:43;;;;;;;69.32;40.63;;;;;;;;;;5033690;28;20076;-47
2021/12/16 18:08:10;;;;;;;60.30;36.47;;;;;;;;;;5034798;28;20041;-50
2021/12/16 18:10:37;;;;;;;56.88;35.85;;;;;;;;;;5035117;28;20026;-48
2021/12/16 18:13:03;;;;;;;50.22;32.55;;;;;;;;;;5034926;28;20029;-50
2021/12/16 18:15:31;;;;;;;58.45;35.35;;;;;;;;;;5034748;28;20026;-48
2021/12/16 18:18:08;;;;;;;62.28;37.03;;;;;;;;;;5034696;28;20060;-50
2021/12/16 18:20:42;;;;;;;64.63;36.72;;;;;;;;;;5034746;28;20048;-48
2021/12/16 18:23:14;;;;;;;62.75;38.15;;;;;;;;;;5034782;28;20041;-48
2021/12/16 18:25:43;;;;;;;54.50;36.00;;;;;;;;;;5034713;28;20018;-48